createdAt,value
2023-03-04T00:00:22.734Z,95382.72
2023-03-04T00:02:50.612Z,95387.28
2023-03-04T00:05:18.516Z,95385.19
2023-03-04T00:07:46.336Z,95375.41
2023-03-04T00:10:14.270Z,95339.94
2023-03-04T00:12:42.167Z,95360.25
2023-03-04T00:15:12.086Z,95388.19
2023-03-04T00:17:39.901Z,95372.94
2023-03-04T00:20:09.346Z,95378.69
2023-03-04T00:22:37.167Z,95377.88
2023-03-04T00:25:05.663Z,95380.84
2023-03-04T00:27:33.559Z,95369.03
2023-03-04T00:30:01.374Z,95364.38
2023-03-04T00:32:30.670Z,95358.94
2023-03-04T00:34:58.590Z,95365.50
2023-03-04T00:37:26.673Z,95358.75
2023-03-04T00:39:54.501Z,95364.28
2023-03-04T00:42:22.384Z,95363.63
2023-03-04T00:44:53.583Z,95365.69
2023-03-04T00:47:21.568Z,95354.00
2023-03-04T00:49:51.096Z,95364.41
2023-03-04T00:52:18.962Z,95350.25
2023-03-04T00:54:46.834Z,95360.34
2023-03-04T00:57:14.682Z,95358.16
2023-03-04T00:59:43.850Z,95356.56
2023-03-04T01:02:12.252Z,95341.22
2023-03-04T01:04:41.829Z,95341.22
2023-03-04T01:07:11.284Z,95340.81
2023-03-04T01:09:39.262Z,95344.19
2023-03-04T01:12:07.666Z,95359.44
2023-03-04T01:14:35.909Z,95349.03
2023-03-04T01:17:04.150Z,95356.78
2023-03-04T01:19:32.022Z,95343.50
2023-03-04T01:21:59.878Z,95352.72
2023-03-04T01:24:30.024Z,95345.69
2023-03-04T01:26:57.898Z,95352.50
2023-03-04T01:29:25.756Z,95343.66
2023-03-04T01:31:53.763Z,95342.69
2023-03-04T01:34:21.649Z,95237.66
2023-03-04T01:36:49.813Z,95341.91
2023-03-04T01:39:17.669Z,95343.28
2023-03-04T01:41:47.004Z,95341.09
2023-03-04T01:44:15.276Z,95329.81
2023-03-04T01:46:48.449Z,95328.91
2023-03-04T01:49:17.178Z,95323.84
2023-03-04T01:51:47.528Z,95320.88
2023-03-04T01:54:15.445Z,95317.31
2023-03-04T01:56:48.252Z,95283.97
2023-03-04T01:59:18.415Z,95307.81
2023-03-04T02:01:48.184Z,95315.63
2023-03-04T02:04:17.957Z,95309.31
2023-03-04T02:06:47.699Z,95318.31
2023-03-04T02:09:16.447Z,95324.38
2023-03-04T02:11:45.364Z,95319.50
2023-03-04T02:14:16.131Z,95314.78
2023-03-04T02:16:44.549Z,95288.66
2023-03-04T02:19:20.954Z,95310.63
2023-03-04T02:21:48.869Z,95314.38
2023-03-04T02:24:21.996Z,95292.00
2023-03-04T02:26:51.350Z,95306.28
2023-03-04T02:29:19.642Z,95269.25
2023-03-04T02:31:49.406Z,95314.41
2023-03-04T02:34:18.863Z,95292.22
2023-03-04T02:36:48.534Z,95318.72
2023-03-04T02:39:24.512Z,95276.06
2023-03-04T02:41:55.700Z,95305.28
2023-03-04T02:44:26.042Z,95265.16
2023-03-04T02:46:54.753Z,95302.13
2023-03-04T02:49:24.227Z,95302.28
2023-03-04T02:51:54.129Z,95304.00
2023-03-04T02:54:24.663Z,95270.41
2023-03-04T02:56:55.661Z,95300.63
2023-03-04T02:59:24.360Z,95301.91
2023-03-04T03:01:52.470Z,95299.75
2023-03-04T03:04:22.619Z,95301.31
2023-03-04T03:06:50.997Z,95296.06
2023-03-04T03:09:19.128Z,95309.75
2023-03-04T03:11:47.227Z,95311.63
2023-03-04T03:14:16.579Z,95316.56
2023-03-04T03:16:44.392Z,95300.34
2023-03-04T03:19:12.313Z,95289.44
2023-03-04T03:21:40.313Z,95305.47
2023-03-04T03:24:08.656Z,95304.50
2023-03-04T03:26:36.655Z,95312.13
2023-03-04T03:29:04.494Z,95309.22
2023-03-04T03:31:33.779Z,95299.53
2023-03-04T03:34:01.690Z,95258.84
2023-03-04T03:36:29.842Z,95299.91
2023-03-04T03:38:57.715Z,95279.44
2023-03-04T03:41:25.552Z,95290.25
2023-03-04T03:43:53.444Z,95251.91
2023-03-04T03:46:21.289Z,95293.31
2023-03-04T03:48:50.520Z,95292.03
2023-03-04T03:51:18.323Z,95250.63
2023-03-04T03:53:46.138Z,95292.91
2023-03-04T03:56:13.965Z,95288.03
2023-03-04T03:58:41.841Z,95276.16
2023-03-04T04:01:09.886Z,95289.25
2023-03-04T04:03:37.823Z,95282.03
2023-03-04T04:06:07.694Z,95286.38
2023-03-04T04:08:35.593Z,95276.16
2023-03-04T04:11:03.540Z,95271.44
2023-03-04T04:13:31.438Z,95273.63
2023-03-04T04:15:59.594Z,95280.13
2023-03-04T04:18:27.883Z,95280.63
2023-03-04T04:20:55.892Z,95264.59
2023-03-04T04:23:25.134Z,95275.97
2023-03-04T04:25:52.981Z,95273.78
2023-03-04T04:28:20.823Z,95266.47
2023-03-04T04:30:48.992Z,95273.09
2023-03-04T04:33:17.724Z,95257.25
2023-03-04T04:35:45.673Z,95280.53
2023-03-04T04:38:13.594Z,95275.97
2023-03-04T04:40:43.517Z,95275.47
2023-03-04T04:43:11.580Z,95280.91
2023-03-04T04:45:39.457Z,95267.53
2023-03-04T04:48:09.036Z,95280.50
2023-03-04T04:50:37.096Z,95278.84
2023-03-04T04:53:05.000Z,95278.72
2023-03-04T04:55:33.421Z,95280.41
2023-03-04T04:58:02.631Z,95269.59
2023-03-04T05:00:30.489Z,95242.44
2023-03-04T05:02:58.381Z,95286.50
2023-03-04T05:05:26.273Z,95299.09
2023-03-04T05:07:54.082Z,95294.25
2023-03-04T05:10:21.993Z,95304.34
2023-03-04T05:12:49.976Z,95296.44
2023-03-04T05:15:19.302Z,95305.00
2023-03-04T05:17:47.165Z,95310.34
2023-03-04T05:20:15.148Z,95308.78
2023-03-04T05:22:42.990Z,95305.44
2023-03-04T05:25:11.412Z,95305.97
2023-03-04T05:27:39.223Z,95307.84
2023-03-04T05:30:08.355Z,95311.59
2023-03-04T05:32:37.581Z,95318.72
2023-03-04T05:35:06.158Z,95315.94
2023-03-04T05:37:34.062Z,95324.88
2023-03-04T05:40:01.926Z,95323.09
2023-03-04T05:42:29.822Z,95320.22
2023-03-04T05:44:57.705Z,95300.91
2023-03-04T05:47:25.528Z,95324.19
2023-03-04T05:49:54.822Z,95282.09
2023-03-04T05:52:22.659Z,95305.25
2023-03-04T05:54:50.507Z,95278.72
2023-03-04T05:57:18.410Z,95326.78
2023-03-04T05:59:46.284Z,95329.84
2023-03-04T06:02:14.221Z,95338.56
2023-03-04T06:04:42.167Z,95320.72
2023-03-04T06:07:11.373Z,95347.75
2023-03-04T06:09:39.209Z,95345.28
2023-03-04T06:12:07.521Z,95344.72
2023-03-04T06:14:35.455Z,95337.19
2023-03-04T06:17:03.539Z,95345.50
2023-03-04T06:19:31.454Z,95339.25
2023-03-04T06:21:59.371Z,95342.22
2023-03-04T06:24:29.609Z,95350.63
2023-03-04T06:26:57.567Z,95333.59
2023-03-04T06:29:25.489Z,95341.72
2023-03-04T06:31:53.541Z,95353.22
2023-03-04T06:34:21.829Z,95347.06
2023-03-04T06:36:49.812Z,95351.31
2023-03-04T06:39:17.863Z,95338.72
2023-03-04T06:41:47.111Z,95350.03
2023-03-04T06:44:14.971Z,95351.38
2023-03-04T06:46:42.988Z,95340.28
2023-03-04T06:49:10.926Z,95340.19
2023-03-04T06:51:38.819Z,95343.22
2023-03-04T06:54:06.766Z,95334.13
2023-03-04T06:56:34.909Z,95363.75
2023-03-04T06:59:04.243Z,95338.38
2023-03-04T07:01:32.409Z,95319.34
2023-03-04T07:04:00.616Z,95344.47
2023-03-04T07:06:29.916Z,95361.75
2023-03-04T07:08:58.630Z,95361.41
2023-03-04T07:11:29.421Z,95357.25
2023-03-04T07:13:57.299Z,95361.28
2023-03-04T07:16:26.668Z,95362.56
2023-03-04T07:18:55.043Z,95361.44
2023-03-04T07:21:22.948Z,95361.81
2023-03-04T07:23:50.961Z,95372.09
2023-03-04T07:26:19.214Z,95361.00
2023-03-04T07:28:47.254Z,95366.03
2023-03-04T07:31:22.614Z,95360.81
2023-03-04T07:33:53.427Z,95361.47
2023-03-04T07:36:21.265Z,95364.50
2023-03-04T07:38:50.646Z,95368.00
2023-03-04T07:41:19.313Z,95354.97
2023-03-04T07:43:47.153Z,95363.88
2023-03-04T07:46:15.471Z,95370.06
2023-03-04T07:48:43.518Z,95368.28
2023-03-04T07:51:14.898Z,95364.28
2023-03-04T07:53:46.236Z,95363.63
2023-03-04T07:56:16.246Z,95356.97
2023-03-04T07:58:44.595Z,95337.50
2023-03-04T08:01:14.402Z,95353.50
2023-03-04T08:03:42.886Z,95365.53
2023-03-04T08:06:13.882Z,95357.22
2023-03-04T08:08:43.004Z,95359.47
2023-03-04T08:11:12.822Z,95350.47
2023-03-04T08:13:41.008Z,95335.19
2023-03-04T08:16:09.819Z,95359.22
2023-03-04T08:18:39.712Z,95357.25
2023-03-04T08:21:10.493Z,95357.38
2023-03-04T08:23:41.000Z,95330.94
2023-03-04T08:26:10.668Z,95360.78
2023-03-04T08:28:39.328Z,95354.28
2023-03-04T08:31:07.637Z,95359.97
2023-03-04T08:33:35.965Z,95358.50
2023-03-04T08:36:03.806Z,95335.41
2023-03-04T08:38:32.159Z,95329.88
2023-03-04T08:41:03.094Z,95350.78
2023-03-04T08:43:31.816Z,95357.22
2023-03-04T08:46:00.062Z,95336.69
2023-03-04T08:48:28.353Z,95291.44
2023-03-04T08:50:56.237Z,95294.81
2023-03-04T08:53:24.359Z,95337.13
2023-03-04T08:55:52.723Z,95354.03
2023-03-04T08:58:22.093Z,95338.97
2023-03-04T09:00:51.637Z,95340.28
2023-03-04T09:03:20.658Z,95337.94
2023-03-04T09:06:00.467Z,95340.91
2023-03-04T09:08:28.330Z,95303.91
2023-03-04T09:10:56.776Z,95332.50
2023-03-04T09:13:27.500Z,95328.69
2023-03-04T09:15:55.682Z,95332.81
2023-03-04T09:18:25.785Z,95318.31
2023-03-04T09:20:54.525Z,95325.53
2023-03-04T09:23:23.286Z,95276.22
2023-03-04T09:25:51.392Z,95316.22
2023-03-04T09:28:20.350Z,95319.53
2023-03-04T09:30:49.584Z,95253.94
2023-03-04T09:33:17.898Z,95316.72
2023-03-04T09:35:46.192Z,95298.03
2023-03-04T09:38:14.077Z,95311.34
2023-03-04T09:40:45.030Z,95311.09
2023-03-04T09:43:20.572Z,95307.28
2023-03-04T09:45:54.596Z,95290.97
2023-03-04T09:48:26.104Z,95271.41
2023-03-04T09:51:06.486Z,95302.25
2023-03-04T09:53:42.134Z,95288.97
2023-03-04T09:59:05.169Z,95280.50
2023-03-04T10:01:41.084Z,95238.66
2023-03-04T10:04:18.090Z,95266.34
2023-03-04T10:06:54.279Z,95292.31
2023-03-04T10:09:26.527Z,95278.75
2023-03-04T10:12:03.008Z,95253.28
2023-03-04T10:14:41.235Z,95253.66
2023-03-04T10:17:17.897Z,95224.06
2023-03-04T10:19:55.535Z,95277.81
2023-03-04T10:22:30.163Z,95271.19
2023-03-04T10:24:59.777Z,95272.03
2023-03-04T10:27:30.164Z,95268.56
2023-03-04T10:30:01.794Z,95163.66
2023-03-04T10:32:31.129Z,95258.50
2023-03-04T10:34:59.130Z,95250.16
2023-03-04T10:37:46.405Z,95224.66
2023-03-04T10:40:22.490Z,95236.41
2023-03-04T10:42:51.319Z,95230.41
2023-03-04T10:45:24.640Z,95224.34
2023-03-04T10:47:58.869Z,95213.13
2023-03-04T10:50:29.301Z,95195.97
2023-03-04T10:52:58.614Z,95224.75
2023-03-04T10:55:30.509Z,95204.16
2023-03-04T10:58:04.564Z,95199.50
2023-03-04T11:00:34.512Z,95214.03
2023-03-04T11:03:29.181Z,95162.38
2023-03-04T11:06:18.727Z,95205.50
2023-03-04T11:08:55.292Z,95177.91
2023-03-04T11:11:34.595Z,95183.31
2023-03-04T11:14:15.501Z,95189.00
2023-03-04T11:16:54.269Z,95181.22
2023-03-04T11:19:27.287Z,95184.06
2023-03-04T11:21:56.503Z,95176.00
2023-03-04T11:24:29.808Z,95168.78
2023-03-04T11:27:04.498Z,95148.81
2023-03-04T11:29:39.428Z,95165.91
2023-03-04T11:32:12.997Z,95150.59
2023-03-04T11:34:48.953Z,95143.97
2023-03-04T11:37:23.863Z,95148.25
2023-03-04T11:39:55.664Z,95123.16
2023-03-04T11:42:33.122Z,95150.59
2023-03-04T11:45:01.119Z,95148.78
2023-03-04T11:47:43.094Z,95141.34
2023-03-04T11:50:28.488Z,95113.00
2023-03-04T11:53:21.466Z,95142.78
2023-03-04T11:55:57.407Z,95088.38
2023-03-04T11:58:48.535Z,95121.13
2023-03-04T12:01:21.726Z,95082.88
2023-03-04T12:04:07.783Z,95112.00
2023-03-04T12:06:47.596Z,95120.06
2023-03-04T12:09:38.584Z,95118.59
2023-03-04T12:12:29.061Z,95121.41
2023-03-04T12:15:10.121Z,94977.69
2023-03-04T12:17:56.056Z,95111.81
2023-03-04T12:20:36.621Z,95107.97
2023-03-04T12:23:25.813Z,95110.41
2023-03-04T12:26:01.841Z,95105.78
2023-03-04T12:28:43.328Z,95076.78
2023-03-04T12:31:40.437Z,95089.97
2023-03-04T12:34:32.406Z,95070.81
2023-03-04T12:37:14.570Z,95091.81
2023-03-04T12:39:54.128Z,95073.50
2023-03-04T12:42:31.002Z,95091.66
2023-03-04T12:45:10.339Z,95061.31
2023-03-04T12:47:52.349Z,95081.56
2023-03-04T12:50:43.546Z,95069.25
2023-03-04T12:53:22.337Z,95029.56
2023-03-04T12:55:53.109Z,95072.91
2023-03-04T12:58:25.206Z,95078.28
2023-03-04T13:01:04.099Z,95060.25
2023-03-04T13:03:43.214Z,95028.13
2023-03-04T13:06:25.172Z,95058.47
2023-03-04T13:09:02.463Z,95035.72
2023-03-04T13:11:44.076Z,95055.59
2023-03-04T13:14:26.556Z,95047.38
2023-03-04T13:16:55.975Z,95040.25
2023-03-04T13:19:53.736Z,95045.81
2023-03-04T13:22:35.311Z,95046.28
2023-03-04T13:25:36.759Z,95041.16
2023-03-04T13:28:25.838Z,95039.38
2023-03-04T13:31:14.621Z,95047.66
2023-03-04T13:34:10.678Z,95020.56
2023-03-04T13:37:00.921Z,94990.53
2023-03-04T13:39:36.267Z,95042.72
2023-03-04T13:42:06.316Z,94880.25
2023-03-04T13:45:03.011Z,94990.41
2023-03-04T13:47:51.066Z,95026.44
2023-03-04T13:50:40.301Z,95029.75
2023-03-04T13:53:44.062Z,95016.53
2023-03-04T13:56:23.397Z,95017.91
2023-03-04T13:58:54.196Z,95005.88
2023-03-04T14:01:30.594Z,95019.75
2023-03-04T14:03:59.421Z,95013.84
2023-03-04T14:06:28.745Z,95009.56
2023-03-04T14:08:57.585Z,95018.28
2023-03-04T14:11:29.296Z,95012.53
2023-03-04T14:13:59.187Z,94971.66
2023-03-04T14:16:30.375Z,94989.00
2023-03-04T14:19:03.648Z,94960.88
2023-03-04T14:21:32.701Z,94998.63
2023-03-04T14:24:06.968Z,94999.66
2023-03-04T14:26:35.498Z,95000.94
2023-03-04T14:29:04.052Z,94996.78
2023-03-04T14:31:37.338Z,94995.28
2023-03-04T14:34:05.465Z,94991.69
2023-03-04T14:36:35.676Z,94995.72
2023-03-04T14:39:07.271Z,94987.44
2023-03-04T14:41:36.634Z,94984.66
2023-03-04T14:44:10.862Z,94991.53
2023-03-04T14:46:49.314Z,94985.59
2023-03-04T14:49:25.600Z,94982.16
2023-03-04T14:51:54.807Z,94963.38
2023-03-04T14:54:29.502Z,94963.00
2023-03-04T14:56:58.293Z,94804.84
2023-03-04T14:59:31.238Z,94970.66
2023-03-04T15:02:31.327Z,94970.91
2023-03-04T15:05:01.583Z,94960.38
2023-03-04T15:07:35.828Z,94968.72
2023-03-04T15:10:07.113Z,94967.25
2023-03-04T15:12:38.763Z,94961.19
2023-03-04T15:15:47.778Z,94912.34
2023-03-04T15:18:26.222Z,94940.66
2023-03-04T15:20:58.440Z,94964.28
2023-03-04T15:23:26.957Z,94956.84
2023-03-04T15:25:57.232Z,94959.88
2023-03-04T15:28:26.364Z,94954.16
2023-03-04T15:30:56.760Z,94949.88
2023-03-04T15:33:28.137Z,94935.19
2023-03-04T15:35:59.498Z,94929.00
2023-03-04T15:38:28.575Z,94904.50
2023-03-04T15:40:58.500Z,94902.69
2023-03-04T15:43:27.500Z,94911.44
2023-03-04T15:46:06.611Z,94931.63
2023-03-04T15:48:36.207Z,94927.69
2023-03-04T15:51:05.059Z,94908.06
2023-03-04T15:53:38.810Z,94925.53
2023-03-04T15:56:12.008Z,94921.50
2023-03-04T15:58:40.616Z,94838.59
2023-03-04T16:01:10.449Z,94774.22
2023-03-04T16:03:39.684Z,94870.16
2023-03-04T16:06:11.538Z,94881.44
2023-03-04T16:08:43.023Z,94911.53
2023-03-04T16:11:16.201Z,94861.91
2023-03-04T16:13:44.302Z,94930.41
2023-03-04T16:16:12.900Z,94929.03
2023-03-04T16:18:43.260Z,94935.50
2023-03-04T16:21:16.597Z,94927.44
2023-03-04T16:23:46.797Z,94931.25
2023-03-04T16:26:23.602Z,94873.66
2023-03-04T16:28:52.340Z,94932.69
2023-03-04T16:31:21.426Z,94918.41
2023-03-04T16:33:50.706Z,94934.66
2023-03-04T16:36:23.393Z,94935.97
2023-03-04T16:38:52.587Z,94927.31
2023-03-04T16:41:28.434Z,94934.75
2023-03-04T16:43:57.096Z,94936.50
2023-03-04T16:46:25.072Z,94946.16
2023-03-04T16:48:55.169Z,94949.94
2023-03-04T16:51:24.637Z,94923.66
2023-03-04T16:53:56.440Z,94957.97
2023-03-04T16:56:24.949Z,94948.06
2023-03-04T16:58:54.160Z,94927.25
2023-03-04T17:01:24.228Z,94885.06
2023-03-04T17:03:52.288Z,94932.63
2023-03-04T17:06:22.213Z,94938.59
2023-03-04T17:08:50.505Z,94787.69
2023-03-04T17:11:21.575Z,94951.88
2023-03-04T17:13:51.459Z,94936.56
2023-03-04T17:16:28.836Z,94927.28
2023-03-04T17:18:59.768Z,94938.59
2023-03-04T17:21:30.282Z,94942.06
2023-03-04T17:23:58.191Z,94920.47
2023-03-04T17:26:27.704Z,94941.94
2023-03-04T17:28:56.831Z,94940.69
2023-03-04T17:31:27.867Z,94930.19
2023-03-04T17:33:56.545Z,94946.47
2023-03-04T17:36:31.219Z,94949.16
2023-03-04T17:39:05.274Z,94939.09
2023-03-04T17:41:35.979Z,94950.56
2023-03-04T17:44:05.886Z,94911.25
2023-03-04T17:46:37.043Z,94949.31
2023-03-04T17:49:09.673Z,94951.16
2023-03-04T17:51:42.549Z,94953.38
2023-03-04T17:54:14.103Z,94935.72
2023-03-04T17:56:44.590Z,94938.06
2023-03-04T17:59:15.112Z,94955.25
2023-03-04T18:01:45.156Z,94953.38
2023-03-04T18:04:14.297Z,94945.34
2023-03-04T18:06:42.834Z,94938.59
2023-03-04T18:09:12.310Z,94950.06
2023-03-04T18:11:41.785Z,94820.81
2023-03-04T18:14:12.184Z,94957.19
2023-03-04T18:16:40.795Z,94937.34
2023-03-04T18:19:09.533Z,94962.13
2023-03-04T18:21:39.027Z,94959.09
2023-03-04T18:24:07.517Z,94954.53
2023-03-04T18:26:37.059Z,94951.84
2023-03-04T18:29:05.315Z,94954.06
2023-03-04T18:31:34.705Z,94960.06
2023-03-04T18:34:03.887Z,94960.84
2023-03-04T18:36:31.875Z,94954.69
2023-03-04T18:39:00.361Z,94947.75
2023-03-04T18:41:28.559Z,94955.34
2023-03-04T18:43:59.242Z,94949.97
2023-03-04T18:46:35.283Z,94943.06
2023-03-04T18:49:06.341Z,94959.13
2023-03-04T18:51:34.497Z,94951.38
2023-03-04T18:54:02.691Z,94954.41
2023-03-04T18:56:38.179Z,94948.88
2023-03-04T18:59:13.796Z,94951.53
2023-03-04T19:01:42.007Z,94933.06
2023-03-04T19:04:10.188Z,94948.97
2023-03-04T19:06:38.154Z,94957.16
2023-03-04T19:09:06.691Z,94954.28
2023-03-04T19:11:34.585Z,94947.19
2023-03-04T19:14:03.481Z,94959.22
2023-03-04T19:16:32.932Z,94965.38
2023-03-04T19:19:00.974Z,94933.72
2023-03-04T19:21:29.373Z,94956.50
2023-03-04T19:23:57.473Z,94910.38
2023-03-04T19:26:26.422Z,94955.06
2023-03-04T19:28:55.643Z,94958.88
2023-03-04T19:31:24.791Z,94960.44
2023-03-04T19:33:56.755Z,94899.47
2023-03-04T19:36:27.201Z,94954.22
2023-03-04T19:38:56.280Z,94963.41
2023-03-04T19:41:24.718Z,94958.69
2023-03-04T19:43:52.550Z,94955.53
2023-03-04T19:46:21.574Z,94924.38
2023-03-04T19:48:50.372Z,94954.13
2023-03-04T19:51:22.031Z,94975.72
2023-03-04T19:53:51.474Z,94960.91
2023-03-04T19:56:20.350Z,94958.25
2023-03-04T19:58:48.969Z,94965.16
2023-03-04T20:01:21.861Z,94973.53
2023-03-04T20:03:49.826Z,94900.31
2023-03-04T20:06:19.070Z,94969.00
2023-03-04T20:08:47.010Z,94954.53
2023-03-04T20:11:14.979Z,94972.84
2023-03-04T20:13:43.217Z,94960.38
2023-03-04T20:16:17.020Z,94973.34
2023-03-04T20:18:47.654Z,94951.44
2023-03-04T20:21:15.770Z,94968.94
2023-03-04T20:23:45.014Z,94950.81
2023-03-04T20:26:12.929Z,94959.31
2023-03-04T20:28:41.060Z,94965.66
2023-03-04T20:31:15.560Z,94947.50
2023-03-04T20:33:45.548Z,94948.19
2023-03-04T20:36:15.196Z,94958.13
2023-03-04T20:38:45.271Z,94974.19
2023-03-04T20:41:14.294Z,94942.00
2023-03-04T20:43:42.544Z,94966.41
2023-03-04T20:46:28.973Z,94909.44
2023-03-04T20:48:58.563Z,94965.50
2023-03-04T20:51:27.141Z,94963.91
2023-03-04T20:53:56.664Z,94965.50
2023-03-04T20:56:25.795Z,94964.88
2023-03-04T20:58:55.219Z,94927.09
2023-03-04T21:01:24.632Z,94944.72
2023-03-04T21:03:53.282Z,94837.16
2023-03-04T21:06:21.894Z,94945.66
2023-03-04T21:08:50.161Z,94929.78
2023-03-04T21:11:19.701Z,94954.69
2023-03-04T21:13:55.964Z,94951.38
2023-03-04T21:16:26.307Z,94954.50
2023-03-04T21:18:54.734Z,94885.03
2023-03-04T21:21:24.563Z,94882.69
2023-03-04T21:23:54.640Z,94946.34
2023-03-04T21:26:25.030Z,94889.16
2023-03-04T21:28:54.586Z,94799.28
2023-03-04T21:31:25.413Z,94903.34
2023-03-04T21:33:54.596Z,94943.34
2023-03-04T21:36:23.247Z,94941.63
2023-03-04T21:38:51.350Z,94942.88
2023-03-04T21:41:21.713Z,94916.09
2023-03-04T21:43:52.230Z,94941.31
2023-03-04T21:46:20.156Z,94881.28
2023-03-04T21:48:48.512Z,94937.06
2023-03-04T21:51:17.901Z,94877.66
2023-03-04T21:53:45.843Z,94935.13
2023-03-04T21:56:15.612Z,94926.97
2023-03-04T21:58:45.822Z,94875.41
2023-03-04T22:01:17.040Z,94922.22
2023-03-04T22:03:45.199Z,94920.34
2023-03-04T22:06:14.365Z,94885.72
2023-03-04T22:08:42.890Z,94928.56
2023-03-04T22:11:13.328Z,94928.69
2023-03-04T22:13:41.810Z,94926.50
2023-03-04T22:16:11.336Z,94925.88
2023-03-04T22:18:41.173Z,94922.72
2023-03-04T22:21:10.998Z,94923.03
2023-03-04T22:23:41.391Z,94922.09
2023-03-04T22:26:12.334Z,94911.06
2023-03-04T22:28:40.486Z,94881.09
2023-03-04T22:31:15.672Z,94903.81
2023-03-04T22:33:45.656Z,94887.56
2023-03-04T22:36:14.577Z,94849.94
2023-03-04T22:38:44.575Z,94909.66
2023-03-04T22:41:17.098Z,94920.66
2023-03-04T22:43:45.778Z,94914.06
2023-03-04T22:46:15.271Z,94897.19
2023-03-04T22:48:44.729Z,94911.41
2023-03-04T22:51:13.007Z,94912.81
2023-03-04T22:53:41.126Z,94867.63
2023-03-04T22:56:09.219Z,94915.97
2023-03-04T22:58:37.566Z,94912.50
2023-03-04T23:01:06.334Z,94909.84
2023-03-04T23:03:34.550Z,94907.44
2023-03-04T23:06:07.352Z,94893.94
2023-03-04T23:08:35.763Z,94908.88
2023-03-04T23:11:03.689Z,94900.38
2023-03-04T23:13:33.681Z,94904.47
2023-03-04T23:16:02.863Z,94860.38
2023-03-04T23:18:31.825Z,94899.09
2023-03-04T23:20:59.827Z,94904.31
2023-03-04T23:23:29.073Z,94898.63
2023-03-04T23:25:56.924Z,94894.38
2023-03-04T23:28:24.851Z,94892.94
2023-03-04T23:30:52.838Z,94893.59
2023-03-04T23:33:21.088Z,94876.25
2023-03-04T23:35:49.028Z,94893.13
2023-03-04T23:38:16.918Z,94892.94
2023-03-04T23:40:46.220Z,94882.59
2023-03-04T23:43:14.069Z,94890.91
2023-03-04T23:45:42.010Z,94894.84
2023-03-04T23:48:09.878Z,94884.00
2023-03-04T23:50:38.225Z,94885.25
2023-03-04T23:53:06.241Z,94883.34
2023-03-04T23:55:34.433Z,94885.88
2023-03-04T23:58:03.632Z,94877.53
